createdAt,value
2022-11-24T00:01:07.598Z,7.17
2022-11-24T00:03:45.423Z,7.10
2022-11-24T00:06:21.610Z,7.07
2022-11-24T00:09:08.470Z,7.08
2022-11-24T00:11:46.633Z,7.19
2022-11-24T00:14:20.299Z,7.08
2022-11-24T00:17:03.398Z,7.05
2022-11-24T00:19:38.669Z,6.97
2022-11-24T00:22:18.327Z,7.03
2022-11-24T00:24:58.907Z,7.10
2022-11-24T00:27:39.182Z,7.22
2022-11-24T00:30:21.064Z,7.15
2022-11-24T00:33:02.026Z,7.14
2022-11-24T00:36:03.695Z,7.19
2022-11-24T00:38:36.583Z,7.09
2022-11-24T00:41:11.798Z,7.00
2022-11-24T00:44:02.927Z,7.07
2022-11-24T00:46:48.705Z,7.10
2022-11-24T00:49:22.960Z,7.03
2022-11-24T00:52:08.392Z,6.95
2022-11-24T00:55:07.380Z,7.02
2022-11-24T00:57:48.562Z,7.06
2022-11-24T01:00:27.066Z,7.05
2022-11-24T01:03:01.852Z,6.93
2022-11-24T01:05:43.232Z,7.10
2022-11-24T01:08:18.903Z,6.87
2022-11-24T01:11:15.058Z,6.89
2022-11-24T01:13:54.885Z,6.96
2022-11-24T01:16:39.622Z,6.86
2022-11-24T01:19:20.253Z,6.96
2022-11-24T01:22:02.225Z,6.84
2022-11-24T01:24:37.819Z,6.78
2022-11-24T01:27:23.325Z,6.85
2022-11-24T01:30:05.233Z,6.84
2022-11-24T01:35:46.506Z,6.73
2022-11-24T01:38:33.682Z,6.78
2022-11-24T01:41:40.125Z,6.73
2022-11-24T01:44:34.375Z,6.69
2022-11-24T01:47:42.734Z,6.57
2022-11-24T01:50:22.038Z,6.53
2022-11-24T01:52:59.749Z,6.63
2022-11-24T01:55:39.015Z,6.67
2022-11-24T01:58:27.298Z,6.62
2022-11-24T02:01:00.710Z,6.66
2022-11-24T02:04:02.862Z,6.59
2022-11-24T02:06:48.023Z,6.65
2022-11-24T02:09:44.422Z,6.70
2022-11-24T02:12:38.536Z,6.60
2022-11-24T02:15:19.971Z,6.70
2022-11-24T02:18:15.117Z,6.73
2022-11-24T02:21:19.888Z,6.70
2022-11-24T02:24:50.606Z,6.71
2022-11-24T02:27:52.271Z,6.80
2022-11-24T02:30:36.943Z,6.79
2022-11-24T02:33:25.098Z,6.75
2022-11-24T02:36:08.545Z,6.78
2022-11-24T02:38:48.964Z,6.70
2022-11-24T02:41:36.350Z,6.80
2022-11-24T02:44:44.022Z,7.02
2022-11-24T02:47:20.701Z,7.00
2022-11-24T02:50:13.011Z,7.13
2022-11-24T02:52:51.478Z,7.29
2022-11-24T02:55:34.204Z,7.39
2022-11-24T02:58:15.500Z,7.39
2022-11-24T03:00:59.135Z,7.49
2022-11-24T03:03:41.440Z,7.37
2022-11-24T03:06:22.607Z,7.56
2022-11-24T03:09:29.132Z,7.67
2022-11-24T03:12:07.202Z,7.60
2022-11-24T03:14:42.493Z,7.54
2022-11-24T03:17:47.277Z,7.50
2022-11-24T03:20:39.381Z,7.65
2022-11-24T03:23:26.083Z,7.61
2022-11-24T03:26:49.739Z,7.64
2022-11-24T03:29:53.610Z,7.72
2022-11-24T03:32:35.464Z,7.79
2022-11-24T03:35:09.657Z,7.65
2022-11-24T03:37:45.322Z,7.80
2022-11-24T03:40:23.658Z,7.82
2022-11-24T03:42:58.165Z,7.76
2022-11-24T03:45:50.596Z,7.82
2022-11-24T03:48:31.286Z,7.93
2022-11-24T03:51:14.476Z,8.00
2022-11-24T03:54:13.288Z,8.00
2022-11-24T03:56:48.873Z,8.13
2022-11-24T03:59:51.634Z,8.16
2022-11-24T04:02:59.989Z,8.04
2022-11-24T04:05:45.306Z,8.05
2022-11-24T04:08:24.074Z,8.04
2022-11-24T04:11:01.487Z,8.05
2022-11-24T04:13:44.017Z,8.00
2022-11-24T04:16:22.561Z,7.95
2022-11-24T04:19:02.086Z,8.13
2022-11-24T04:21:40.251Z,7.98
2022-11-24T04:24:13.135Z,8.05
2022-11-24T04:26:51.815Z,8.00
2022-11-24T04:29:30.315Z,7.79
2022-11-24T04:32:05.847Z,7.84
2022-11-24T04:34:38.976Z,7.77
2022-11-24T04:37:13.691Z,7.79
2022-11-24T04:39:49.751Z,7.64
2022-11-24T04:42:35.798Z,7.67
2022-11-24T04:45:23.838Z,7.50
2022-11-24T04:48:21.659Z,7.34
2022-11-24T04:51:00.086Z,7.37
2022-11-24T04:53:51.762Z,7.42
2022-11-24T04:56:30.555Z,7.49
2022-11-24T04:59:14.450Z,7.41
2022-11-24T05:01:48.144Z,7.41
2022-11-24T05:04:27.727Z,7.54
2022-11-24T05:07:09.036Z,7.48
2022-11-24T05:10:03.043Z,7.50
2022-11-24T05:12:40.707Z,7.53
2022-11-24T05:15:15.924Z,7.57
2022-11-24T05:17:54.887Z,7.58
2022-11-24T05:23:26.490Z,7.47
2022-11-24T05:26:03.988Z,7.62
2022-11-24T05:28:38.242Z,7.47
2022-11-24T05:31:19.544Z,7.60
2022-11-24T05:34:01.555Z,7.55
2022-11-24T05:36:58.909Z,7.49
2022-11-24T05:39:37.219Z,7.59
2022-11-24T05:42:31.950Z,7.70
2022-11-24T05:45:05.455Z,7.78
2022-11-24T05:47:39.868Z,7.83
2022-11-24T05:50:16.549Z,7.84
2022-11-24T05:52:49.924Z,7.74
2022-11-24T05:55:25.175Z,7.85
2022-11-24T05:58:08.512Z,7.76
2022-11-24T06:00:41.923Z,7.77
2022-11-24T06:03:23.697Z,7.78
2022-11-24T06:06:10.090Z,7.73
2022-11-24T06:08:45.480Z,7.91
2022-11-24T06:11:27.454Z,7.94
2022-11-24T06:14:13.672Z,8.00
2022-11-24T06:16:56.892Z,7.98
2022-11-24T06:19:42.198Z,7.84
2022-11-24T06:22:20.927Z,7.93
2022-11-24T06:25:12.647Z,7.94
2022-11-24T06:28:36.579Z,7.73
2022-11-24T06:31:33.987Z,7.77
2022-11-24T06:34:24.919Z,7.83
2022-11-24T06:37:05.398Z,7.80
2022-11-24T06:39:42.797Z,7.85
2022-11-24T06:42:19.241Z,7.88
2022-11-24T06:45:26.337Z,7.86
2022-11-24T06:48:14.980Z,7.85
2022-11-24T06:50:54.227Z,7.97
2022-11-24T06:56:46.181Z,7.60
2022-11-24T06:59:28.603Z,7.53
2022-11-24T07:02:07.488Z,7.64
2022-11-24T07:04:50.987Z,7.52
2022-11-24T07:07:26.917Z,7.17
2022-11-24T07:10:04.492Z,7.23
2022-11-24T07:12:51.369Z,7.16
2022-11-24T07:16:03.222Z,7.18
2022-11-24T07:18:41.746Z,7.22
2022-11-24T07:24:11.114Z,7.13
2022-11-24T07:27:02.975Z,7.28
2022-11-24T07:38:43.913Z,7.15
2022-11-24T07:41:46.529Z,7.18
2022-11-24T07:45:07.503Z,7.03
2022-11-24T07:48:02.437Z,6.94
2022-11-24T07:51:20.045Z,6.94
2022-11-24T07:54:09.232Z,6.78
2022-11-24T07:59:47.095Z,6.82
2022-11-24T08:02:28.479Z,6.88
2022-11-24T08:05:05.584Z,6.79
2022-11-24T08:07:55.862Z,6.85
2022-11-24T08:21:20.145Z,6.84
2022-11-24T08:30:04.226Z,6.91
2022-11-24T08:32:47.021Z,6.87
2022-11-24T08:35:37.783Z,6.97
2022-11-24T08:38:12.991Z,6.93
2022-11-24T08:40:57.102Z,6.99
2022-11-24T08:43:39.099Z,6.95
2022-11-24T08:46:35.670Z,7.04
2022-11-24T08:49:19.588Z,7.10
2022-11-24T08:54:53.034Z,7.20
2022-11-24T08:57:30.350Z,7.30
2022-11-24T09:00:56.020Z,7.20
2022-11-24T09:04:15.666Z,7.31
2022-11-24T09:07:04.452Z,7.36
2022-11-24T09:11:50.893Z,7.33
2022-11-24T09:13:45.654Z,7.40
2022-11-24T09:19:45.448Z,7.61
2022-11-24T09:22:29.755Z,7.68
2022-11-24T09:29:11.204Z,7.70
2022-11-24T09:32:06.480Z,7.85
2022-11-24T09:41:58.000Z,7.86
2022-11-24T09:46:15.641Z,7.92
2022-11-24T09:53:37.213Z,8.05
2022-11-24T10:07:15.320Z,8.47
2022-11-24T10:10:45.452Z,8.45
2022-11-24T10:13:57.849Z,8.51
2022-11-24T10:17:11.213Z,8.60
2022-11-24T10:20:01.834Z,8.60
2022-11-24T10:23:43.120Z,8.65
2022-11-24T10:33:37.816Z,8.70
2022-11-24T10:36:51.366Z,8.96
2022-11-24T10:39:41.633Z,8.83
2022-11-24T10:42:28.229Z,8.84
2022-11-24T10:45:49.573Z,8.89
2022-11-24T10:48:40.159Z,8.84
2022-11-24T10:52:06.376Z,9.11
2022-11-24T10:55:09.347Z,9.17
2022-11-24T10:57:47.783Z,9.38
2022-11-24T11:01:04.531Z,9.43
2022-11-24T11:04:04.422Z,9.37
2022-11-24T11:06:39.914Z,9.40
2022-11-24T11:09:26.432Z,9.38
2022-11-24T11:12:45.720Z,9.51
2022-11-24T11:19:41.144Z,9.59
2022-11-24T11:22:36.609Z,9.59
2022-11-24T11:25:42.446Z,9.60
2022-11-24T11:28:34.655Z,9.72
2022-11-24T11:31:31.446Z,9.82
2022-11-24T11:34:42.897Z,9.76
2022-11-24T11:37:58.300Z,9.96
2022-11-24T11:44:55.522Z,10.03
2022-11-24T11:47:50.919Z,9.88
2022-11-24T11:50:59.132Z,10.28
2022-11-24T11:54:26.893Z,10.11
2022-11-24T11:57:37.818Z,10.33
2022-11-24T12:01:17.117Z,10.01
2022-11-24T12:04:32.981Z,10.26
2022-11-24T12:07:46.230Z,10.38
2022-11-24T12:10:41.639Z,10.18
2022-11-24T12:14:08.842Z,10.38
2022-11-24T12:17:47.327Z,10.34
2022-11-24T12:21:10.172Z,10.29
2022-11-24T12:24:17.161Z,10.40
2022-11-24T13:05:26.918Z,10.75
2022-11-24T13:08:09.147Z,10.83
2022-11-24T13:11:00.361Z,10.61
2022-11-24T13:14:05.082Z,10.77
2022-11-24T13:17:29.354Z,10.92
2022-11-24T13:24:06.835Z,10.72
2022-11-24T13:26:57.678Z,10.81
2022-11-24T13:29:44.859Z,10.94
2022-11-24T13:32:23.536Z,11.03
2022-11-24T13:36:20.707Z,11.13
2022-11-24T13:39:02.145Z,10.97
2022-11-24T13:41:48.389Z,11.07
2022-11-24T13:44:30.384Z,10.99
2022-11-24T13:47:38.134Z,11.05
2022-11-24T13:50:36.083Z,11.10
2022-11-24T13:53:38.503Z,10.93
2022-11-24T13:56:14.367Z,11.01
2022-11-24T13:58:55.187Z,10.84
2022-11-24T14:01:42.694Z,10.93
2022-11-24T14:04:30.940Z,10.95
2022-11-24T14:07:12.516Z,10.86
2022-11-24T14:09:52.368Z,10.92
2022-11-24T14:12:26.975Z,10.97
2022-11-24T14:15:25.867Z,10.80
2022-11-24T14:18:05.223Z,10.71
2022-11-24T14:20:44.556Z,10.79
2022-11-24T14:23:25.670Z,10.77
2022-11-24T14:26:25.739Z,10.56
2022-11-24T14:29:11.734Z,10.52
2022-11-24T14:32:07.977Z,10.55
2022-11-24T14:34:42.629Z,10.44
2022-11-24T14:37:17.724Z,10.47
2022-11-24T14:39:56.494Z,10.27
2022-11-24T14:42:29.667Z,10.30
2022-11-24T14:45:05.721Z,10.33
2022-11-24T14:47:46.072Z,10.24
2022-11-24T14:50:23.748Z,10.10
2022-11-24T14:52:59.161Z,10.04
2022-11-24T14:55:39.098Z,10.04
2022-11-24T14:58:34.583Z,9.99
2022-11-24T15:01:26.566Z,9.97
2022-11-24T15:07:31.903Z,9.91
2022-11-24T15:10:18.328Z,9.92
2022-11-24T15:13:01.150Z,9.82
2022-11-24T15:15:41.015Z,9.74
2022-11-24T15:18:34.660Z,9.77
2022-11-24T15:21:08.325Z,9.62
2022-11-24T15:23:43.226Z,9.57
2022-11-24T15:26:31.281Z,9.56
2022-11-24T15:29:06.059Z,9.43
2022-11-24T15:31:41.394Z,9.44
2022-11-24T15:34:20.572Z,9.42
2022-11-24T15:36:58.958Z,9.31
2022-11-24T15:39:32.080Z,9.21
2022-11-24T15:42:43.375Z,9.25
2022-11-24T15:45:17.668Z,9.11
2022-11-24T15:47:55.790Z,9.22
2022-11-24T15:50:28.571Z,9.12
2022-11-24T15:53:01.314Z,8.91
2022-11-24T15:55:34.538Z,9.06
2022-11-24T16:05:19.985Z,8.66
2022-11-24T16:07:52.846Z,8.68
2022-11-24T16:10:36.321Z,8.53
2022-11-24T16:13:09.978Z,8.50
2022-11-24T16:15:43.116Z,8.49
2022-11-24T16:18:16.362Z,8.51
2022-11-24T16:20:49.310Z,8.44
2022-11-24T16:23:22.377Z,8.47
2022-11-24T16:25:55.315Z,8.47
2022-11-24T16:28:28.172Z,8.40
2022-11-24T16:31:01.585Z,8.39
2022-11-24T16:33:34.283Z,8.44
2022-11-24T16:36:08.233Z,8.22
2022-11-24T16:38:49.869Z,8.33
2022-11-24T16:41:22.574Z,8.27
2022-11-24T16:43:55.660Z,8.20
2022-11-24T16:46:30.720Z,8.27
2022-11-24T16:49:04.497Z,8.14
2022-11-24T16:51:37.422Z,8.11
2022-11-24T16:54:12.279Z,8.10
2022-11-24T16:56:45.302Z,8.23
2022-11-24T16:59:18.217Z,8.32
2022-11-24T17:01:51.113Z,8.34
2022-11-24T17:04:23.999Z,8.31
2022-11-24T17:06:58.665Z,8.24
2022-11-24T17:09:34.809Z,8.23
2022-11-24T17:12:10.577Z,8.18
2022-11-24T17:14:52.664Z,8.09
2022-11-24T17:17:37.533Z,8.16
2022-11-24T17:20:10.668Z,8.19
2022-11-24T17:22:48.802Z,8.14
2022-11-24T17:25:24.122Z,8.08
2022-11-24T17:27:56.925Z,8.00
2022-11-24T17:30:29.873Z,8.18
2022-11-24T17:33:02.759Z,8.17
2022-11-24T17:35:35.962Z,8.13
2022-11-24T17:38:08.906Z,8.13
2022-11-24T17:40:48.001Z,8.19
2022-11-24T17:43:20.867Z,8.11
2022-11-24T17:46:00.185Z,8.17
2022-11-24T17:48:34.836Z,8.13
2022-11-24T17:51:15.036Z,8.17
2022-11-24T17:53:50.622Z,8.14
2022-11-24T17:56:27.256Z,8.11
2022-11-24T17:59:01.416Z,8.08
2022-11-24T18:01:39.740Z,8.00
2022-11-24T18:04:17.680Z,8.06
2022-11-24T18:06:53.113Z,7.89
2022-11-24T18:09:25.731Z,7.80
2022-11-24T18:12:00.123Z,7.87
2022-11-24T18:14:33.616Z,7.82
2022-11-24T18:17:10.230Z,7.57
2022-11-24T18:19:45.150Z,7.71
2022-11-24T18:22:21.053Z,7.62
2022-11-24T18:25:00.051Z,7.57
2022-11-24T18:27:32.900Z,7.54
2022-11-24T18:30:06.766Z,7.40
2022-11-24T18:32:42.178Z,7.47
2022-11-24T18:35:15.104Z,7.37
2022-11-24T18:37:47.913Z,7.40
2022-11-24T18:40:23.362Z,7.33
2022-11-24T18:42:56.578Z,7.41
2022-11-24T18:45:29.310Z,7.34
2022-11-24T18:48:02.073Z,7.31
2022-11-24T18:50:35.571Z,7.28
2022-11-24T18:53:17.007Z,7.29
2022-11-24T18:56:04.501Z,7.32
2022-11-24T18:58:37.359Z,7.23
2022-11-24T19:01:19.496Z,7.08
2022-11-24T19:03:58.947Z,7.14
2022-11-24T19:06:35.669Z,7.17
2022-11-24T19:09:14.078Z,7.16
2022-11-24T19:11:47.708Z,7.13
2022-11-24T19:14:20.357Z,7.17
2022-11-24T19:16:53.134Z,7.14
2022-11-24T19:19:25.936Z,7.14
2022-11-24T19:21:58.796Z,7.00
2022-11-24T19:24:31.742Z,7.05
2022-11-24T19:27:05.220Z,7.00
2022-11-24T19:29:48.448Z,6.96
2022-11-24T19:32:21.172Z,6.90
2022-11-24T19:34:53.867Z,7.03
2022-11-24T19:37:29.126Z,6.93
2022-11-24T19:40:02.251Z,6.98
2022-11-24T19:42:35.079Z,6.93
2022-11-24T19:45:09.523Z,6.99
2022-11-24T19:47:42.157Z,6.98
2022-11-24T19:50:14.769Z,6.98
2022-11-24T19:52:49.287Z,7.01
2022-11-24T19:55:28.167Z,7.03
2022-11-24T19:58:00.909Z,6.99
2022-11-24T20:00:33.919Z,6.91
2022-11-24T20:03:06.534Z,7.01
2022-11-24T20:05:39.781Z,7.01
2022-11-24T20:08:12.716Z,7.02
2022-11-24T20:10:45.515Z,7.09
2022-11-24T20:13:20.627Z,7.22
2022-11-24T20:15:53.278Z,7.14
2022-11-24T20:18:27.269Z,7.22
2022-11-24T20:21:06.227Z,7.31
2022-11-24T20:23:39.843Z,7.28
2022-11-24T20:26:19.747Z,7.51
2022-11-24T20:28:56.032Z,7.56
2022-11-24T20:31:41.751Z,7.50
2022-11-24T20:34:16.132Z,7.55
2022-11-24T20:36:53.277Z,7.67
2022-11-24T20:39:31.221Z,7.67
2022-11-24T20:42:04.987Z,7.80
2022-11-24T20:45:08.584Z,7.92
2022-11-24T20:47:48.861Z,7.93
2022-11-24T20:50:27.250Z,7.84
2022-11-24T20:53:00.882Z,7.83
2022-11-24T20:55:36.535Z,7.82
2022-11-24T20:58:10.918Z,8.03
2022-11-24T21:00:48.369Z,7.86
2022-11-24T21:03:25.782Z,7.85
2022-11-24T21:05:58.974Z,7.80
2022-11-24T21:08:51.056Z,7.87
2022-11-24T21:11:26.784Z,7.93
2022-11-24T21:14:05.206Z,7.83
2022-11-24T21:16:45.134Z,8.07
2022-11-24T21:19:28.705Z,8.02
2022-11-24T21:22:06.215Z,8.08
2022-11-24T21:24:42.986Z,8.03
2022-11-24T21:27:19.193Z,8.08
2022-11-24T21:29:59.563Z,8.21
2022-11-24T21:32:36.576Z,8.27
2022-11-24T21:35:14.516Z,8.17
2022-11-24T21:37:53.548Z,8.29
2022-11-24T21:40:29.084Z,8.11
2022-11-24T21:43:06.813Z,8.00
2022-11-24T21:45:42.951Z,8.15
2022-11-24T21:48:15.935Z,8.23
2022-11-24T21:50:51.714Z,8.08
2022-11-24T21:53:27.491Z,8.09
2022-11-24T21:56:08.737Z,8.11
2022-11-24T21:58:51.772Z,8.10
2022-11-24T22:01:31.179Z,8.13
2022-11-24T22:04:06.729Z,8.14
2022-11-24T22:06:42.219Z,8.22
2022-11-24T22:09:18.212Z,8.23
2022-11-24T22:11:54.076Z,8.29
2022-11-24T22:14:34.981Z,8.19
2022-11-24T22:17:15.510Z,8.30
2022-11-24T22:19:52.484Z,8.37
2022-11-24T22:22:27.518Z,8.31
2022-11-24T22:25:06.225Z,8.34
2022-11-24T22:27:39.451Z,8.36
2022-11-24T22:30:12.738Z,8.48
2022-11-24T22:32:45.761Z,8.46
2022-11-24T22:35:18.629Z,8.50
2022-11-24T22:37:52.137Z,8.60
2022-11-24T22:40:24.907Z,8.52
2022-11-24T22:43:03.587Z,8.63
2022-11-24T22:45:36.465Z,8.65
2022-11-24T22:48:09.523Z,8.82
2022-11-24T22:50:42.353Z,8.75
2022-11-24T22:53:16.541Z,8.89
2022-11-24T22:55:49.743Z,9.08
2022-11-24T22:58:22.823Z,9.05
2022-11-24T23:00:58.028Z,8.90
2022-11-24T23:03:42.022Z,9.19
2022-11-24T23:06:30.142Z,9.14
2022-11-24T23:09:07.746Z,9.33
2022-11-24T23:11:41.896Z,9.22
2022-11-24T23:14:20.352Z,9.27
2022-11-24T23:16:58.990Z,9.33
2022-11-24T23:19:34.887Z,9.30
2022-11-24T23:22:10.202Z,9.28
2022-11-24T23:24:53.249Z,9.27
2022-11-24T23:27:28.037Z,9.24
2022-11-24T23:30:05.267Z,9.42
2022-11-24T23:32:39.489Z,9.24
2022-11-24T23:35:14.722Z,9.27
2022-11-24T23:38:07.106Z,9.22
2022-11-24T23:40:42.618Z,9.30
2022-11-24T23:43:15.736Z,9.41
2022-11-24T23:45:56.065Z,9.41
2022-11-24T23:48:29.606Z,9.37
2022-11-24T23:51:20.238Z,9.44
2022-11-24T23:53:56.259Z,9.38
2022-11-24T23:56:34.298Z,9.49
2022-11-24T23:59:11.712Z,9.50
